Time;durP1;ratioP1;P1;durP2;ratioP2;P2;SDS_P1;SDS_P2;PMS_P1;PMS_P2;Temp;Humidity;BMP_temperature;BMP_pressure;BME280_temperature;BME280_humidity;BME280_pressure;Samples;Min_cycle;Max_cycle;Signal;HPM_P1;HPM_P2
2022/06/05 00:00:59;;;;;;;7.20;3.13;;;21.00;99.90;;;;;;5094346;28;20132;-78
2022/06/05 00:03:48;;;;;;;4.55;3.20;;;21.00;99.90;;;;;;5077308;28;20080;-81
2022/06/05 00:06:26;;;;;;;4.15;3.35;;;21.00;99.90;;;;;;5103905;28;20509;-79
2022/06/05 00:09:00;;;;;;;4.85;2.85;;;21.10;99.90;;;;;;5092530;28;20067;-79
2022/06/05 00:11:30;;;;;;;4.20;3.35;;;21.10;99.90;;;;;;5093578;28;20055;-79
2022/06/05 00:13:57;;;;;;;3.90;3.17;;;21.20;99.90;;;;;;5094754;28;20042;-78
2022/06/05 00:16:28;;;;;;;5.63;3.33;;;21.20;99.90;;;;;;5102854;28;20052;-79
2022/06/05 00:18:56;;;;;;;6.90;3.83;;;21.20;99.90;;;;;;5092290;28;20102;-80
2022/06/05 00:21:23;;;;;;;8.30;4.47;;;21.20;99.90;;;;;;5094497;28;20461;-80
2022/06/05 00:23:50;;;;;;;8.93;3.60;;;21.20;99.90;;;;;;5093773;28;20550;-80
2022/06/05 00:26:47;;;;;;;7.13;4.10;;;21.10;99.90;;;;;;5092736;28;20048;-81
2022/06/05 00:29:23;;;;;;;6.00;4.05;;;21.10;99.90;;;;;;5096489;28;20044;-80
2022/06/05 00:31:56;;;;;;;6.22;3.72;;;21.10;99.90;;;;;;5095772;28;20078;-79
2022/06/05 00:34:23;;;;;;;3.80;3.40;;;21.10;99.90;;;;;;5093273;28;20066;-79
2022/06/05 00:37:24;;;;;;;7.38;3.90;;;21.10;99.90;;;;;;5094222;28;20051;-80
2022/06/05 00:40:00;;;;;;;4.20;3.33;;;21.10;99.90;;;;;;5095392;28;20048;-80
2022/06/05 00:42:31;;;;;;;5.60;4.22;;;21.10;99.90;;;;;;5105407;28;20053;-79
2022/06/05 00:45:02;;;;;;;5.93;3.78;;;21.10;99.90;;;;;;5091713;28;20433;-80
2022/06/05 00:47:33;;;;;;;6.82;4.45;;;21.10;99.90;;;;;;5101183;28;20067;-81
2022/06/05 00:50:02;;;;;;;7.22;3.88;;;21.10;99.90;;;;;;5092196;28;20089;-79
2022/06/05 00:52:32;;;;;;;6.18;4.13;;;21.10;99.90;;;;;;5092885;28;20151;-81
2022/06/05 00:54:59;;;;;;;5.75;4.38;;;21.10;99.90;;;;;;5094600;28;20132;-81
2022/06/05 00:57:32;;;;;;;7.43;4.65;;;21.10;99.90;;;;;;5092609;28;20176;-80
2022/06/05 01:00:00;;;;;;;8.52;4.32;;;21.10;99.90;;;;;;5092027;28;20055;-81
2022/06/05 01:02:29;;;;;;;9.80;5.13;;;21.00;99.90;;;;;;5093192;28;20048;-79
2022/06/05 01:04:56;;;;;;;5.90;4.78;;;21.00;99.90;;;;;;5092760;28;20048;-79
2022/06/05 01:07:22;;;;;;;12.23;4.38;;;21.00;99.90;;;;;;5094992;28;20051;-80
2022/06/05 01:09:51;;;;;;;9.65;4.63;;;21.00;99.90;;;;;;5091199;28;20047;-81
2022/06/05 01:12:24;;;;;;;6.07;4.50;;;21.00;99.90;;;;;;5092207;28;20463;-79
2022/06/05 01:14:56;;;;;;;9.40;4.47;;;21.00;99.90;;;;;;5092492;28;20044;-79
2022/06/05 01:17:45;;;;;;;6.38;4.30;;;21.00;99.90;;;;;;5097990;28;20079;-80
2022/06/05 01:20:22;;;;;;;6.00;4.80;;;21.00;99.90;;;;;;5095602;28;20732;-80
2022/06/05 01:23:09;;;;;;;8.68;5.13;;;21.00;99.90;;;;;;5096620;28;20105;-79
2022/06/05 01:25:59;;;;;;;9.45;4.05;;;21.00;99.90;;;;;;5081851;28;20052;-79
2022/06/05 01:28:33;;;;;;;7.22;4.28;;;20.90;99.90;;;;;;5082396;28;20052;-79
2022/06/05 01:31:04;;;;;;;6.25;4.22;;;20.90;99.90;;;;;;5083046;28;20098;-79
2022/06/05 01:33:31;;;;;;;6.10;4.55;;;20.90;99.90;;;;;;5090869;28;20048;-79
2022/06/05 01:36:11;;;;;;;7.63;3.97;;;20.90;99.90;;;;;;5092974;28;20040;-79
2022/06/05 01:38:54;;;;;;;5.57;5.03;;;20.80;99.90;;;;;;5095060;28;20044;-79
2022/06/05 01:41:39;;;;;;;6.55;4.97;;;20.60;99.90;;;;;;5093895;28;20134;-79
2022/06/05 01:44:10;;;;;;;5.80;4.88;;;20.60;99.90;;;;;;5091216;28;20487;-80
2022/06/05 01:46:38;;;;;;;7.25;5.35;;;20.60;99.90;;;;;;5092432;28;20048;-79
2022/06/05 01:49:15;;;;;;;8.07;6.05;;;20.60;99.90;;;;;;5089112;28;20052;-79
2022/06/05 01:52:00;;;;;;;7.53;6.53;;;20.60;99.90;;;;;;5092747;28;20045;-79
2022/06/05 01:54:33;;;;;;;12.00;9.73;;;20.60;99.90;;;;;;5092955;28;20039;-80
2022/06/05 01:57:04;;;;;;;8.80;7.78;;;20.60;99.90;;;;;;5094089;28;20072;-79
2022/06/05 01:59:38;;;;;;;13.15;8.85;;;20.60;99.90;;;;;;5091867;28;20112;-81
2022/06/05 02:02:08;;;;;;;11.90;9.77;;;20.60;99.90;;;;;;5100383;28;20054;-80
2022/06/05 02:04:41;;;;;;;;;;;20.50;99.90;;;;;;5088639;28;20059;-79
2022/06/05 02:07:25;;;;;;;12.48;9.35;;;20.40;99.90;;;;;;5092098;28;19959;-79
2022/06/05 02:10:02;;;;;;;12.98;8.98;;;20.50;99.90;;;;;;5095810;28;20132;-80
2022/06/05 02:12:30;;;;;;;12.05;9.27;;;20.50;99.90;;;;;;5094643;28;20048;-79
2022/06/05 02:14:57;;;;;;;10.20;8.48;;;20.50;99.90;;;;;;5089025;28;20529;-81
2022/06/05 02:17:24;;;;;;;14.68;9.63;;;20.50;99.90;;;;;;5091378;28;20063;-78
2022/06/05 02:19:52;;;;;;;12.98;9.60;;;20.50;99.90;;;;;;5088116;28;20426;-79
2022/06/05 02:22:34;;;;;;;13.20;9.40;;;20.50;99.90;;;;;;5090189;28;20044;-80
2022/06/05 02:25:01;;;;;;;15.77;8.68;;;20.60;99.90;;;;;;5088998;28;20135;-80
2022/06/05 02:27:28;;;;;;;13.15;8.98;;;20.60;99.90;;;;;;5094083;28;20040;-79
2022/06/05 02:29:57;;;;;;;10.75;9.45;;;20.60;99.90;;;;;;5089796;28;20115;-79
2022/06/05 02:32:53;;;;;;;12.60;9.45;;;20.60;99.90;;;;;;5087688;28;20050;-81
2022/06/05 02:35:47;;;;;;;12.05;9.20;;;20.60;99.90;;;;;;5089721;28;20045;-79
2022/06/05 02:38:34;;;;;;;9.70;8.70;;;20.60;99.90;;;;;;5090028;28;20417;-79
2022/06/05 02:41:14;;;;;;;10.50;8.75;;;20.60;99.90;;;;;;5080558;28;20131;-79
2022/06/05 02:43:45;;;;;;;;;;;20.60;99.90;;;;;;5083917;28;20047;-79
2022/06/05 02:46:21;;;;;;;15.32;8.95;;;20.60;99.90;;;;;;5092227;28;20408;-80
2022/06/05 02:49:02;;;;;;;9.75;8.75;;;20.60;99.90;;;;;;5089455;28;20102;-80
2022/06/05 02:51:33;;;;;;;9.30;8.30;;;20.60;99.90;;;;;;5089716;28;20410;-79
2022/06/05 02:54:00;;;;;;;12.18;9.10;;;20.60;99.90;;;;;;5088313;28;20079;-79
2022/06/05 02:56:30;;;;;;;10.43;8.27;;;20.60;99.90;;;;;;5091365;28;20213;-79
2022/06/05 02:58:59;;;;;;;11.98;7.90;;;20.60;99.90;;;;;;5087327;28;20428;-78
2022/06/05 03:04:12;;;;;;;12.65;7.72;;;20.60;99.90;;;;;;5089003;28;20463;-80
2022/06/05 03:06:41;;;;;;;9.30;7.03;;;20.60;99.90;;;;;;5090251;28;20070;-80
2022/06/05 03:09:09;;;;;;;14.63;7.30;;;20.60;99.90;;;;;;5096006;28;20072;-79
2022/06/05 03:11:40;;;;;;;8.75;7.15;;;20.60;99.90;;;;;;5088622;28;20049;-79
2022/06/05 03:14:07;;;;;;;9.63;7.15;;;20.60;99.90;;;;;;5090701;28;20531;-79
2022/06/05 03:16:34;;;;;;;9.90;7.22;;;20.50;99.90;;;;;;5084246;28;20044;-79
2022/06/05 03:19:01;;;;;;;9.65;8.68;;;20.40;99.90;;;;;;5090907;28;20047;-79
2022/06/05 03:21:33;;;;;;;14.45;10.15;;;20.20;99.90;;;;;;5089276;28;20058;-80
2022/06/05 03:24:00;;;;;;;20.63;13.25;;;20.10;99.90;;;;;;5087879;28;20052;-79
2022/06/05 03:26:27;;;;;;;17.05;12.57;;;20.00;99.90;;;;;;5087803;28;20520;-80
2022/06/05 03:28:54;;;;;;;17.95;12.30;;;19.70;99.90;;;;;;5088699;28;20044;-79
2022/06/05 03:31:20;;;;;;;14.10;11.82;;;19.50;99.90;;;;;;5087860;28;20051;-79
2022/06/05 03:33:47;;;;;;;16.90;13.70;;;19.60;99.90;;;;;;5089816;28;20036;-80
2022/06/05 03:36:16;;;;;;;16.90;12.52;;;19.50;99.90;;;;;;5092978;28;20080;-79
2022/06/05 03:38:43;;;;;;;15.40;13.70;;;19.50;99.90;;;;;;5090570;28;20052;-79
2022/06/05 03:41:10;;;;;;;18.05;16.10;;;19.40;99.90;;;;;;5090450;28;20048;-79
2022/06/05 03:43:37;;;;;;;16.88;15.07;;;19.50;99.90;;;;;;5088701;28;20048;-79
2022/06/05 03:46:08;;;;;;;20.15;17.13;;;19.50;99.90;;;;;;5091024;28;20052;-79
2022/06/05 03:48:35;;;;;;;19.75;16.55;;;19.60;99.90;;;;;;5088533;28;20415;-80
2022/06/05 03:51:10;;;;;;;16.30;14.52;;;19.60;99.90;;;;;;5092122;28;20070;-79
2022/06/05 03:53:37;;;;;;;22.15;17.75;;;19.60;99.90;;;;;;5093002;28;20052;-79
2022/06/05 03:56:10;;;;;;;27.35;22.95;;;19.60;99.90;;;;;;5087799;28;20059;-79
2022/06/05 03:58:36;;;;;;;30.52;20.83;;;19.60;99.90;;;;;;5087735;28;20052;-79
2022/06/05 04:01:06;;;;;;;23.83;21.23;;;19.70;99.90;;;;;;5089627;28;20421;-80
2022/06/05 04:03:33;;;;;;;37.50;28.50;;;19.70;99.90;;;;;;5087644;28;20063;-81
2022/06/05 04:06:00;;;;;;;32.90;24.35;;;19.70;99.90;;;;;;5090527;28;20055;-80
2022/06/05 04:08:26;;;;;;;26.42;21.00;;;19.70;99.90;;;;;;5092204;28;20036;-79
2022/06/05 04:10:53;;;;;;;31.40;25.25;;;19.80;99.90;;;;;;5090223;28;20048;-79
2022/06/05 04:13:20;;;;;;;22.08;19.70;;;19.80;99.90;;;;;;5087524;28;20040;-80
2022/06/05 04:15:46;;;;;;;26.52;21.33;;;19.80;99.90;;;;;;5088335;28;20456;-80
2022/06/05 04:18:13;;;;;;;25.17;18.92;;;19.80;99.90;;;;;;5087838;28;20059;-80
2022/06/05 04:20:40;;;;;;;22.17;18.35;;;19.80;99.90;;;;;;5089016;28;20044;-79
2022/06/05 04:23:10;;;;;;;27.90;20.92;;;19.80;99.90;;;;;;5089625;28;20531;-79
2022/06/05 04:25:37;;;;;;;21.25;19.02;;;19.80;99.90;;;;;;5097606;28;20411;-79
2022/06/05 04:28:06;;;;;;;22.85;18.35;;;19.80;99.90;;;;;;5092021;28;20044;-79
2022/06/05 04:30:36;;;;;;;27.25;21.23;;;19.80;99.90;;;;;;5081005;28;20422;-79
2022/06/05 04:33:03;;;;;;;21.45;18.92;;;19.70;99.90;;;;;;5087199;28;20040;-79
2022/06/05 04:35:30;;;;;;;26.85;19.80;;;19.80;99.90;;;;;;5082391;28;20144;-79
2022/06/05 04:37:57;;;;;;;28.27;23.13;;;19.80;99.90;;;;;;5084384;28;20055;-80
2022/06/05 04:40:24;;;;;;;29.17;23.55;;;19.80;99.90;;;;;;5083262;28;20054;-79
2022/06/05 04:42:51;;;;;;;28.83;22.70;;;19.80;99.90;;;;;;5094563;28;20040;-80
2022/06/05 04:45:17;;;;;;;26.25;21.30;;;19.80;99.90;;;;;;5095125;28;20469;-80
2022/06/05 04:47:46;;;;;;;30.00;23.10;;;19.70;99.90;;;;;;5091139;28;20144;-79
2022/06/05 04:50:13;;;;;;;21.83;18.30;;;19.80;99.90;;;;;;5090831;28;20044;-79
2022/06/05 04:52:39;;;;;;;24.00;20.55;;;19.80;99.90;;;;;;5091876;28;20127;-80
2022/06/05 04:55:07;;;;;;;25.13;20.75;;;19.80;99.90;;;;;;5091857;28;20071;-78
2022/06/05 04:57:35;;;;;;;30.67;23.02;;;19.80;99.90;;;;;;5093206;28;20075;-80
2022/06/05 05:00:04;;;;;;;18.98;16.90;;;19.90;99.90;;;;;;5090533;28;20432;-79
2022/06/05 05:02:31;;;;;;;21.60;17.95;;;19.90;99.90;;;;;;5100660;28;20044;-78
2022/06/05 05:04:58;;;;;;;23.50;19.85;;;19.90;99.90;;;;;;5089817;28;20421;-81
2022/06/05 05:07:25;;;;;;;22.70;20.30;;;19.90;99.90;;;;;;5092523;28;20047;-79
2022/06/05 05:09:51;;;;;;;21.75;19.38;;;20.00;99.90;;;;;;5090772;28;20050;-80
2022/06/05 05:12:18;;;;;;;20.90;18.20;;;20.00;99.90;;;;;;5087258;28;20080;-79
2022/06/05 05:14:45;;;;;;;24.95;20.10;;;20.10;99.90;;;;;;5092450;28;20055;-78
2022/06/05 05:17:12;;;;;;;22.25;19.23;;;20.10;99.90;;;;;;5095357;28;20087;-79
2022/06/05 05:19:39;;;;;;;24.15;17.50;;;20.10;99.90;;;;;;5091062;28;20451;-78
2022/06/05 05:22:06;;;;;;;18.27;16.38;;;20.20;99.90;;;;;;5088266;28;20088;-80
2022/06/05 05:24:32;;;;;;;18.15;15.90;;;20.10;99.90;;;;;;5091256;28;20055;-79
2022/06/05 05:26:59;;;;;;;20.90;18.40;;;20.10;99.90;;;;;;5092172;28;20055;-79
2022/06/05 05:29:26;;;;;;;24.15;19.20;;;20.20;99.90;;;;;;5092339;28;20420;-78
2022/06/05 05:31:52;;;;;;;21.23;18.58;;;20.20;99.90;;;;;;5087826;28;20055;-79
2022/06/05 05:34:19;;;;;;;17.55;15.80;;;20.20;99.90;;;;;;5090721;28;20043;-80
2022/06/05 05:36:46;;;;;;;18.80;16.75;;;20.30;99.90;;;;;;5091059;28;20051;-80
2022/06/05 05:42:04;;;;;;;18.95;16.95;;;20.30;99.90;;;;;;5088292;28;20441;-80
2022/06/05 05:44:36;;;;;;;17.40;15.60;;;20.40;99.90;;;;;;5091294;28;20051;-78
2022/06/05 05:47:06;;;;;;;18.88;16.48;;;20.40;99.90;;;;;;5090285;28;20108;-78
2022/06/05 05:49:33;;;;;;;20.27;16.35;;;20.40;99.90;;;;;;5088964;28;20048;-78
2022/06/05 05:52:00;;;;;;;16.08;14.55;;;20.40;99.90;;;;;;5091831;28;20042;-78
2022/06/05 05:54:27;;;;;;;16.88;14.73;;;20.40;99.90;;;;;;5096571;28;20104;-79
2022/06/05 05:56:54;;;;;;;15.73;14.13;;;20.40;99.90;;;;;;5095036;28;20136;-79
2022/06/05 05:59:21;;;;;;;18.48;15.15;;;20.40;99.90;;;;;;5100886;28;20048;-79
2022/06/05 06:01:48;;;;;;;16.98;15.20;;;20.40;99.90;;;;;;5095409;28;20050;-80
2022/06/05 06:04:14;;;;;;;18.00;16.08;;;20.40;99.90;;;;;;5098034;28;20049;-81
2022/06/05 06:06:44;;;;;;;19.35;16.52;;;20.40;99.90;;;;;;5102350;28;20044;-80
2022/06/05 06:09:11;;;;;;;21.60;18.05;;;20.50;99.90;;;;;;5088954;28;20045;-79
2022/06/05 06:11:38;;;;;;;17.58;15.50;;;20.50;99.90;;;;;;5095947;28;20127;-79
2022/06/05 06:14:04;;;;;;;16.63;14.98;;;20.60;99.90;;;;;;5093850;28;20048;-80
2022/06/05 06:16:31;;;;;;;17.30;15.27;;;20.60;99.90;;;;;;5094566;28;20048;-79
2022/06/05 06:18:58;;;;;;;19.92;15.13;;;20.70;99.90;;;;;;5100517;28;20052;-80
2022/06/05 06:21:25;;;;;;;19.65;15.25;;;20.80;99.90;;;;;;5094919;28;20048;-79
2022/06/05 06:23:58;;;;;;;15.82;14.27;;;20.80;99.90;;;;;;5093852;28;20048;-78
2022/06/05 06:26:25;;;;;;;16.42;14.93;;;20.90;99.90;;;;;;5101232;28;20055;-79
2022/06/05 06:28:52;;;;;;;17.10;14.40;;;21.00;99.90;;;;;;5098271;28;20130;-79
2022/06/05 06:31:19;;;;;;;17.10;14.15;;;21.10;99.90;;;;;;5099776;28;20040;-81
2022/06/05 06:33:48;;;;;;;14.68;13.25;;;21.20;99.90;;;;;;5097198;28;20128;-79
2022/06/05 06:36:16;;;;;;;19.35;13.93;;;21.30;99.90;;;;;;5096799;28;20058;-80
2022/06/05 06:39:03;;;;;;;15.20;13.80;;;21.30;99.90;;;;;;5093648;28;20055;-82
2022/06/05 06:41:30;;;;;;;14.15;12.70;;;21.40;99.90;;;;;;5097517;28;20054;-82
2022/06/05 06:43:57;;;;;;;16.40;12.52;;;21.50;99.90;;;;;;5097335;28;20104;-81
2022/06/05 06:46:24;;;;;;;14.63;13.20;;;21.50;99.90;;;;;;5103281;28;20068;-80
2022/06/05 06:48:51;;;;;;;14.32;12.90;;;21.50;99.90;;;;;;5095324;28;20063;-82
2022/06/05 06:51:18;;;;;;;17.38;13.05;;;21.50;99.90;;;;;;5100642;28;20535;-81
2022/06/05 06:53:45;;;;;;;14.35;12.50;;;21.50;99.90;;;;;;5099803;28;20051;-81
2022/06/05 06:56:17;;;;;;;13.30;12.02;;;21.60;99.90;;;;;;5094710;28;20070;-81
2022/06/05 06:58:48;;;;;;;15.32;11.30;;;21.60;99.90;;;;;;5109579;28;20060;-82
2022/06/05 07:01:15;;;;;;;12.48;11.27;;;21.60;99.90;;;;;;5096580;28;20048;-82
2022/06/05 07:03:42;;;;;;;14.45;11.32;;;21.60;99.90;;;;;;5093944;28;20056;-82
2022/06/05 07:06:12;;;;;;;15.98;9.95;;;21.70;99.90;;;;;;5099876;28;20047;-82
2022/06/05 07:08:40;;;;;;;12.23;10.10;;;21.70;99.90;;;;;;5095635;28;20112;-81
2022/06/05 07:11:08;;;;;;;13.52;10.18;;;21.80;99.90;;;;;;5097407;28;20048;-81
2022/06/05 07:13:37;;;;;;;13.70;9.95;;;21.80;99.90;;;;;;5094152;28;20059;-80
2022/06/05 07:16:08;;;;;;;13.27;9.85;;;21.90;99.90;;;;;;5096005;28;20036;-83
2022/06/05 07:18:36;;;;;;;11.90;9.45;;;22.00;99.90;;;;;;5085502;28;20048;-82
2022/06/05 07:21:15;;;;;;;9.45;8.52;;;22.20;99.90;;;;;;5110645;28;20063;-86
2022/06/05 07:23:41;;;;;;;13.48;8.85;;;22.30;99.90;;;;;;5113934;28;20036;-85
2022/06/05 07:26:12;;;;;;;8.73;7.85;;;22.50;99.90;;;;;;5098362;28;20075;-83
2022/06/05 07:28:39;;;;;;;12.43;9.20;;;22.60;99.90;;;;;;5093838;28;20045;-82
2022/06/05 07:31:07;;;;;;;14.52;10.70;;;22.60;99.90;;;;;;5086363;28;20131;-82
2022/06/05 07:33:35;;;;;;;13.07;11.45;;;22.60;99.90;;;;;;5077525;28;20041;-83
2022/06/05 07:36:05;;;;;;;16.27;12.13;;;22.60;99.90;;;;;;5080865;28;20049;-83
2022/06/05 07:38:33;;;;;;;15.32;12.27;;;22.50;99.90;;;;;;5076124;28;20063;-84
2022/06/05 07:41:00;;;;;;;15.32;12.75;;;22.40;99.90;;;;;;5085496;28;20048;-82
2022/06/05 07:43:27;;;;;;;15.73;12.80;;;22.30;99.90;;;;;;5090468;28;20076;-81
2022/06/05 07:45:54;;;;;;;15.38;13.63;;;22.30;99.90;;;;;;5082599;28;20177;-81
2022/06/05 07:48:21;;;;;;;14.73;13.18;;;22.30;99.90;;;;;;5091189;28;20044;-83
2022/06/05 07:56:19;;;;;;;14.82;13.32;;;22.10;99.90;;;;;;5085823;28;20045;-83
2022/06/05 07:58:46;;;;;;;15.00;13.48;;;22.10;99.90;;;;;;5082480;28;20056;-83
2022/06/05 08:01:31;;;;;;;14.07;12.10;;;22.00;99.90;;;;;;5085251;28;20053;-83
2022/06/05 08:03:58;;;;;;;15.85;13.02;;;22.00;99.90;;;;;;5088251;28;20093;-84
2022/06/05 08:06:25;;;;;;;15.00;13.50;;;22.10;99.90;;;;;;5087950;28;20414;-82
2022/06/05 08:08:52;;;;;;;15.57;14.07;;;22.10;99.90;;;;;;5088560;28;20055;-83
2022/06/05 08:11:19;;;;;;;15.13;13.73;;;22.30;99.90;;;;;;5088911;28;20050;-82
2022/06/05 08:13:45;;;;;;;14.70;13.20;;;22.50;99.90;;;;;;5098406;28;20060;-82
2022/06/05 08:16:13;;;;;;;14.75;13.25;;;22.60;99.90;;;;;;5088489;28;20102;-82
2022/06/05 08:18:40;;;;;;;15.05;13.25;;;22.70;99.90;;;;;;5089934;28;20107;-82
2022/06/05 08:21:06;;;;;;;15.15;13.38;;;22.80;99.90;;;;;;5087285;28;20112;-83
2022/06/05 08:23:33;;;;;;;13.80;12.60;;;22.80;99.90;;;;;;5092067;28;20054;-82
2022/06/05 08:26:01;;;;;;;15.65;14.02;;;22.80;99.90;;;;;;5088665;28;20106;-86
2022/06/05 08:28:28;;;;;;;15.18;13.50;;;22.80;99.90;;;;;;5095796;28;20142;-82
2022/06/05 08:30:55;;;;;;;14.20;12.43;;;22.80;99.90;;;;;;5094043;28;20513;-83
2022/06/05 08:33:22;;;;;;;14.75;11.80;;;22.90;99.90;;;;;;5097146;28;20132;-82
2022/06/05 08:35:49;;;;;;;15.38;11.43;;;23.00;99.90;;;;;;5092118;28;20087;-84
2022/06/05 08:41:26;;;;;;;12.90;10.18;;;23.10;99.90;;;;;;5090022;28;20053;-82
2022/06/05 08:44:29;;;;;;;11.30;10.13;;;23.20;99.90;;;;;;5088764;28;20128;-82
2022/06/05 08:47:06;;;;;;;12.02;9.80;;;23.20;99.90;;;;;;5090673;28;20058;-82
2022/06/05 08:49:45;;;;;;;9.65;8.00;;;23.30;99.90;;;;;;5088866;28;20089;-83
2022/06/05 08:52:32;;;;;;;10.95;8.20;;;23.40;99.90;;;;;;5088817;28;20441;-84
2022/06/05 08:55:30;;;;;;;10.38;6.85;;;23.40;99.90;;;;;;5094986;28;20044;-82
2022/06/05 08:58:12;;;;;;;6.75;5.10;;;23.40;99.90;;;;;;5094899;28;20075;-82
2022/06/05 09:00:44;;;;;;;6.53;4.57;;;23.40;99.90;;;;;;5088671;28;20048;-83
2022/06/05 09:03:33;;;;;;;6.38;4.30;;;23.30;99.90;;;;;;5087193;28;20070;-83
2022/06/05 09:06:12;;;;;;;7.78;4.30;;;23.40;99.90;;;;;;5089759;28;20053;-82
2022/06/05 09:08:42;;;;;;;5.53;3.72;;;23.60;99.90;;;;;;5092179;28;20439;-83
2022/06/05 09:11:23;;;;;;;6.22;3.75;;;23.70;99.90;;;;;;5085271;28;20090;-82
2022/06/05 09:14:03;;;;;;;5.53;3.47;;;23.90;99.90;;;;;;5086375;28;20127;-83
2022/06/05 09:16:32;;;;;;;9.27;3.30;;;24.10;99.90;;;;;;5087016;28;20047;-83
2022/06/05 09:19:02;;;;;;;6.78;3.72;;;24.30;99.90;;;;;;5089971;28;20078;-83
2022/06/05 09:21:38;;;;;;;6.80;3.13;;;24.50;99.90;;;;;;5092179;28;20059;-83
2022/06/05 09:24:07;;;;;;;5.13;3.70;;;24.70;99.90;;;;;;5092266;28;20091;-82
2022/06/05 09:26:42;;;;;;;4.13;3.42;;;24.90;99.90;;;;;;5093648;28;20131;-83
2022/06/05 09:29:20;;;;;;;8.43;4.00;;;25.00;99.90;;;;;;5095995;28;20048;-82
2022/06/05 09:32:06;;;;;;;6.28;2.70;;;25.00;99.90;;;;;;5097404;28;20075;-82
2022/06/05 09:34:53;;;;;;;5.80;2.85;;;25.10;99.90;;;;;;5104028;28;20040;-82
2022/06/05 09:37:52;;;;;;;6.55;3.67;;;25.20;99.90;;;;;;5088685;28;20079;-83
2022/06/05 09:40:36;;;;;;;5.13;2.40;;;25.20;99.90;;;;;;5104461;28;20053;-82
2022/06/05 09:43:24;;;;;;;3.60;2.30;;;25.20;99.90;;;;;;5092739;28;20409;-83
2022/06/05 09:46:08;;;;;;;2.75;1.77;;;25.30;99.90;;;;;;5094227;28;20093;-82
2022/06/05 09:49:07;;;;;;;5.07;2.80;;;25.30;99.90;;;;;;5088993;28;20044;-82
2022/06/05 09:51:36;;;;;;;2.63;1.90;;;25.30;99.90;;;;;;5062124;28;20133;-82
2022/06/05 09:54:10;;;;;;;2.83;1.73;;;25.10;99.90;;;;;;5087170;28;20044;-83
2022/06/05 10:00:00;;;;;;;3.78;2.20;;;24.70;99.90;;;;;;5088603;28;20494;-82
2022/06/05 10:02:31;;;;;;;4.50;1.80;;;24.30;99.90;;;;;;5083094;28;20456;-82
2022/06/05 10:04:58;;;;;;;2.78;1.38;;;24.10;99.90;;;;;;5087022;28;20533;-83
2022/06/05 10:07:39;;;;;;;3.90;1.17;;;24.00;99.90;;;;;;5092397;28;20127;-83
2022/06/05 10:10:17;;;;;;;2.05;1.00;;;24.00;99.90;;;;;;5084962;28;20060;-83
2022/06/05 10:12:54;;;;;;;3.22;1.10;;;24.20;99.90;;;;;;5085528;28;20060;-81
2022/06/05 10:15:31;;;;;;;1.88;1.00;;;24.30;99.90;;;;;;5085172;28;20044;-82
2022/06/05 10:18:03;;;;;;;2.95;0.93;;;24.30;99.90;;;;;;5085264;28;20067;-83
2022/06/05 10:21:09;;;;;;;0.98;0.60;;;24.40;99.90;;;;;;5082506;28;20145;-82
2022/06/05 10:23:39;;;;;;;1.98;0.80;;;24.50;99.90;;;;;;5083978;28;20077;-83
2022/06/05 10:26:17;;;;;;;;;;;24.50;99.90;;;;;;5085640;28;20063;-82
2022/06/05 10:28:46;;;;;;;2.17;0.90;;;24.40;99.90;;;;;;5088236;28;19927;-83
2022/06/05 10:31:22;;;;;;;3.42;1.05;;;24.40;99.90;;;;;;5086886;28;20421;-81
2022/06/05 10:33:53;;;;;;;2.97;0.90;;;24.30;99.90;;;;;;5090047;28;20075;-81
2022/06/05 10:36:26;;;;;;;2.90;0.98;;;24.50;99.90;;;;;;5086358;28;20090;-81
2022/06/05 10:38:59;;;;;;;2.55;1.02;;;24.50;99.90;;;;;;5089288;28;20049;-82
2022/06/05 10:41:46;;;;;;;4.57;0.80;;;24.70;99.90;;;;;;5089685;28;20060;-82
2022/06/05 10:44:19;;;;;;;2.75;1.10;;;24.90;99.90;;;;;;5095298;28;20052;-81
2022/06/05 10:47:06;;;;;;;2.53;0.60;;;25.00;99.90;;;;;;5086984;28;20056;-82
2022/06/05 10:50:01;;;;;;;1.42;0.75;;;25.00;99.90;;;;;;5086288;28;20045;-81
2022/06/05 10:52:31;;;;;;;1.80;0.90;;;25.10;99.90;;;;;;5081023;28;20588;-82
2022/06/05 10:55:20;;;;;;;1.63;0.65;;;25.30;99.90;;;;;;5085572;28;20594;-81
2022/06/05 10:58:00;;;;;;;2.17;0.60;;;25.60;99.90;;;;;;5086622;28;20135;-81
2022/06/05 11:00:36;;;;;;;3.22;0.70;;;25.90;99.90;;;;;;5089891;28;20417;-82
2022/06/05 11:03:37;;;;;;;2.60;0.80;;;25.80;99.90;;;;;;5084167;28;20079;-82
2022/06/05 11:06:43;;;;;;;1.33;0.55;;;25.70;99.90;;;;;;5084782;28;20089;-81
2022/06/05 11:09:28;;;;;;;1.48;0.60;;;25.60;99.90;;;;;;5088539;28;20075;-81
2022/06/05 11:15:11;;;;;;;2.45;0.73;;;25.60;99.90;;;;;;5084440;28;20038;-82
2022/06/05 11:17:51;;;;;;;2.58;0.60;;;25.90;99.90;;;;;;5084717;28;20044;-82
2022/06/05 11:20:24;;;;;;;3.95;0.65;;;26.10;99.90;;;;;;5083456;28;20079;-83
2022/06/05 11:22:59;;;;;;;0.95;0.52;;;26.20;99.90;;;;;;5089178;28;20044;-81
2022/06/05 11:25:36;;;;;;;2.00;0.75;;;26.30;99.90;;;;;;5089548;28;20048;-81
2022/06/05 11:28:42;;;;;;;1.52;0.50;;;26.50;99.90;;;;;;5080942;28;20077;-84
2022/06/05 11:31:40;;;;;;;2.35;0.75;;;26.60;99.90;;;;;;5088665;28;20048;-81
2022/06/05 11:34:22;;;;;;;2.10;0.68;;;26.60;99.90;;;;;;5090736;28;20048;-81
2022/06/05 11:36:52;;;;;;;3.03;1.05;;;26.20;99.90;;;;;;5088822;28;20058;-81
2022/06/05 11:39:39;;;;;;;1.38;0.70;;;26.00;99.90;;;;;;5090409;28;20048;-81
2022/06/05 11:42:25;;;;;;;0.90;0.50;;;25.80;99.90;;;;;;5094933;28;20501;-81
2022/06/05 11:45:01;;;;;;;3.67;1.05;;;25.60;99.90;;;;;;5095822;28;20068;-81
2022/06/05 11:47:30;;;;;;;1.95;0.80;;;25.60;99.90;;;;;;5093534;28;20135;-82
2022/06/05 11:50:09;;;;;;;4.20;1.02;;;25.80;99.90;;;;;;5092122;28;20078;-83
2022/06/05 11:52:43;;;;;;;2.85;0.75;;;25.90;99.90;;;;;;5092960;28;20054;-82
2022/06/05 11:55:13;;;;;;;2.35;0.90;;;26.00;99.90;;;;;;5096237;28;20050;-82
2022/06/05 11:57:50;;;;;;;3.08;0.88;;;26.10;99.90;;;;;;5097175;28;20044;-81
2022/06/05 12:00:21;;;;;;;2.92;1.30;;;26.10;99.90;;;;;;5088169;28;20056;-81
2022/06/05 12:03:00;;;;;;;4.95;1.33;;;26.00;99.90;;;;;;5092319;28;20098;-83
2022/06/05 12:05:37;;;;;;;2.15;0.90;;;25.90;99.90;;;;;;5092025;28;20044;-80
2022/06/05 12:08:28;;;;;;;1.83;0.60;;;25.90;99.90;;;;;;5098503;28;20056;-83
2022/06/05 12:11:04;;;;;;;3.97;1.02;;;25.90;99.90;;;;;;5087923;28;20051;-82
2022/06/05 12:13:40;;;;;;;1.67;0.60;;;26.00;99.90;;;;;;5094426;28;20139;-82
2022/06/05 12:16:27;;;;;;;3.25;0.65;;;26.20;99.90;;;;;;5093285;28;20131;-81
2022/06/05 12:19:14;;;;;;;1.50;0.60;;;26.20;99.90;;;;;;5090814;28;20075;-81
2022/06/05 12:21:59;;;;;;;1.98;0.65;;;26.20;99.90;;;;;;5088864;28;20135;-81
2022/06/05 12:24:54;;;;;;;0.90;0.50;;;26.40;99.90;;;;;;5089884;28;20505;-81
2022/06/05 12:27:21;;;;;;;4.13;0.80;;;26.50;99.90;;;;;;5092172;28;20127;-80
2022/06/05 12:30:02;;;;;;;1.45;0.52;;;26.30;99.90;;;;;;5091585;28;20060;-81
2022/06/05 12:32:40;;;;;;;1.20;0.50;;;26.30;99.90;;;;;;5094378;28;20040;-82
2022/06/05 12:35:23;;;;;;;3.38;0.70;;;26.20;99.90;;;;;;5096613;28;20056;-81
2022/06/05 12:38:01;;;;;;;1.45;0.50;;;26.20;99.90;;;;;;5092339;28;20040;-80
2022/06/05 12:40:37;;;;;;;1.05;0.70;;;26.50;99.90;;;;;;5089424;28;20056;-81
2022/06/05 12:43:20;;;;;;;1.58;0.55;;;26.70;99.90;;;;;;5089270;28;20571;-83
2022/06/05 12:45:52;;;;;;;3.15;0.77;;;26.70;99.90;;;;;;5093862;28;20051;-82
2022/06/05 12:48:22;;;;;;;1.30;0.63;;;26.70;99.90;;;;;;5093392;28;20044;-81
2022/06/05 12:51:11;;;;;;;2.05;0.95;;;26.70;99.90;;;;;;5092964;28;20036;-83
2022/06/05 12:53:46;;;;;;;0.70;0.47;;;26.70;99.90;;;;;;5098598;28;20040;-82
2022/06/05 12:56:31;;;;;;;0.73;0.45;;;26.90;99.90;;;;;;5104182;28;20052;-80
2022/06/05 12:59:23;;;;;;;2.30;0.70;;;27.00;99.90;;;;;;5095823;28;20041;-80
2022/06/05 13:01:57;;;;;;;1.38;0.47;;;27.20;99.90;;;;;;5095626;28;20068;-82
2022/06/05 13:04:51;;;;;;;2.65;0.80;;;27.20;99.90;;;;;;5095843;28;20080;-80
2022/06/05 13:07:21;;;;;;;1.60;0.73;;;27.30;99.90;;;;;;5071843;28;20056;-81
2022/06/05 13:10:01;;;;;;;2.70;0.65;;;27.40;99.90;;;;;;5095619;28;20112;-83
2022/06/05 13:12:35;;;;;;;2.67;0.50;;;27.30;99.90;;;;;;5096924;28;20055;-80
2022/06/05 13:15:19;;;;;;;0.98;0.30;;;27.40;99.90;;;;;;5094914;28;20476;-81
2022/06/05 13:18:14;;;;;;;2.70;0.52;;;27.40;99.90;;;;;;5095344;28;20063;-80
2022/06/05 13:21:08;;;;;;;2.38;0.50;;;27.50;99.90;;;;;;5112619;28;20084;-80
2022/06/05 13:24:03;;;;;;;1.23;0.45;;;27.50;99.90;;;;;;5093449;28;20125;-80
2022/06/05 13:26:47;;;;;;;1.90;0.52;;;27.40;99.90;;;;;;5093526;28;20139;-81
2022/06/05 13:29:38;;;;;;;1.73;0.40;;;27.30;99.90;;;;;;5092351;28;20071;-81
2022/06/05 13:32:16;;;;;;;2.22;0.60;;;27.00;99.90;;;;;;5093760;28;20045;-82